Peary Spirit — C6YM3 — position and weather

sailwx.info

Track history (hours):
 
Tides and Currents Weather Stations Pressure Air Temp Water Temp Dewpoint Dewpoint Depression Visibility Wind Speed Wind Dir Waves Ship Positions

Peary Spirit

Last reported at 2016-Feb-10 23:31 UTC. Time now 2016-Feb-11 00:29 UTC.
Position N 52°12' E 004°14'.

Length 249 m; draft 9.5 m.

Type: Tanker. MMSI: 311027600.

Date/timePositionNaut miles runAvg speedWind from/ knotsBaromVisibWave heightAir tempDewpointWater temp
2016-Feb-10 23:31N 52°12' E 004°14'0 0.0
2016-Feb-10 22:31N 52°12' E 004°14'0 0.0
2016-Feb-10 21:31N 52°12' E 004°14'0 0.1
2016-Feb-10 20:31N 52°12' E 004°14'0 0.0
2016-Feb-10 19:31N 52°12' E 004°14'0 0.0
2016-Feb-10 18:31N 52°12' E 004°14'0 0.1
2016-Feb-10 17:31N 52°12' E 004°14'0 0.0
2016-Feb-10 16:31N 52°12' E 004°14'0 0.0
2016-Feb-10 15:31N 52°12' E 004°14'0 0.0
2016-Feb-10 14:31N 52°12' E 004°14'0 0.0
2016-Feb-10 13:31N 52°12' E 004°14'0 0.0
2016-Feb-10 12:31N 52°12' E 004°14'0 0.0
2016-Feb-10 11:31N 52°12' E 004°14'0 0.0
2016-Feb-10 10:31N 52°12' E 004°14'0 0.0
2016-Feb-10 09:31N 52°12' E 004°14'0 0.1
2016-Feb-10 08:31N 52°12' E 004°14'0 0.0
2016-Feb-10 07:31N 52°12' E 004°14'0 0.0
2016-Feb-10 06:31N 52°12' E 004°14'0 0.0
2016-Feb-10 05:31N 52°12' E 004°14'0 0.0
2016-Feb-10 04:31N 52°12' E 004°14'0 0.0
2016-Feb-10 03:31N 52°12' E 004°14'0 0.0
2016-Feb-10 02:31N 52°12' E 004°14'0 0.0
2016-Feb-10 01:31N 52°12' E 004°14'0 0.0
2016-Feb-10 00:31N 52°12' E 004°14'0 0.0
2016-Feb-09 23:31N 52°12' E 004°14'0 0.1
2016-Feb-09 22:31N 52°12' E 004°14'0 0.0
2016-Feb-09 21:31N 52°12' E 004°14'0 0.0
2016-Feb-09 20:31N 52°12' E 004°14'0 0.0
2016-Feb-09 19:31N 52°12' E 004°14'0 0.0
2016-Feb-09 18:31N 52°12' E 004°14'0 0.0
2016-Feb-09 17:31N 52°12' E 004°14'0 0.0
2016-Feb-09 16:31N 52°12' E 004°14'1 1.4
2016-Feb-09 15:33N 52°14' E 004°15'4 4.4
2016-Feb-09 14:33N 52°15' E 004°08'2 1.5
2016-Feb-09 13:33N 52°14' E 004°06'0 0.3
2016-Feb-09 12:33N 52°14' E 004°06'0 0.2
2016-Feb-09 11:33N 52°14' E 004°07'0 0.1
2016-Feb-09 10:33N 52°14' E 004°07'4 4.0
2016-Feb-09 09:33N 52°17' E 004°03'18 9.0
2016-Feb-09 07:33N 52°14' E 003°34'1313.1
2016-Feb-09 06:33N 52°03' E 003°24'1413.4
2016-Feb-09 05:32N 51°50' E 003°19'8 7.8
2016-Feb-09 04:33N 51°45' E 003°09'1 0.8
2016-Feb-09 03:32N 51°46' E 003°10'0 0.0
2016-Feb-09 02:33N 51°46' E 003°10'0 0.0
2016-Feb-09 01:33N 51°46' E 003°10'0 0.0
2016-Feb-09 00:32N 51°46' E 003°10'0 0.0
2016-Feb-08 23:32N 51°46' E 003°10'0 0.0
2016-Feb-08 22:29N 51°46' E 003°10'0 0.0
2016-Feb-08 21:33N 51°46' E 003°10'0 0.0
2016-Feb-08 20:33N 51°46' E 003°10'2 1.7
2016-Feb-08 19:33N 51°46' E 003°13'1111.2
2016-Feb-08 18:31N 51°35' E 003°10'1212.4
2016-Feb-08 17:33N 51°25' E 002°59'1110.8
2016-Feb-08 16:33N 51°25' E 003°17'1212.0
2016-Feb-08 15:34N 51°26' E 003°36'9 9.1
2016-Feb-08 14:33N 51°21' E 003°48'9 9.1
2016-Feb-08 13:33N 51°23' E 004°02'9 8.7
2016-Feb-08 12:34N 51°21' E 004°16'1 0.7
2016-Feb-08 11:33N 51°21' E 004°17'0 0.1
2016-Feb-08 10:33N 51°21' E 004°17'0 0.5
2016-Feb-08 09:33N 51°20' E 004°18'0 0.0
2016-Feb-08 03:12N 51°20' E 004°18'0 0.0
2016-Feb-08 02:24N 51°20' E 004°18'0 0.0
2016-Feb-08 00:24N 51°20' E 004°18'0 0.0
2016-Feb-07 23:30N 51°20' E 004°18'0 0.0
2016-Feb-07 22:30N 51°20' E 004°18'0 0.0
2016-Feb-07 01:22N 51°20' E 004°18'0 0.0
2016-Feb-07 00:33N 51°20' E 004°18'1 0.5
2016-Feb-06 23:33N 51°21' E 004°17'0 0.0
2016-Feb-06 22:33N 51°21' E 004°17'3 3.3
2016-Feb-06 21:33N 51°23' E 004°13'9 9.3
2016-Feb-06 20:33N 51°26' E 003°59'1110.6
2016-Feb-06 19:33N 51°24' E 003°43'9 9.3
2016-Feb-06 18:33N 51°25' E 003°28'1212.1
2016-Feb-06 17:33N 51°24' E 003°08'1312.7
2016-Feb-06 16:33N 51°25' E 002°48'9 8.5
2016-Feb-06 15:31N 51°22' E 002°35'1313.3
2016-Feb-06 14:33N 51°18' E 002°15'1212.5
2016-Feb-06 13:34N 51°25' E 001°58'1111.1
2016-Feb-06 12:33N 51°34' E 002°09'1212.2
2016-Feb-06 11:33N 51°43' E 002°23'6612.2
2016-Feb-06 06:11N 52°43' E 003°05'913.3
2016-Feb-06 05:32N 52°51' E 003°12'33611.9
2016-Feb-05 01:11N 58°23' E 004°43'812.5
2016-Feb-05 00:34N 58°30' E 004°48'1312.9
2016-Feb-04 23:34N 58°43' E 004°55'1313.2
2016-Feb-04 22:34N 58°55' E 005°05'1313.3
2016-Feb-04 21:33N 59°06' E 005°19'1111.3
2016-Feb-04 20:33N 59°16' E 005°30'1 0.3
2016-Feb-04 18:26N 59°16' E 005°29'0 0.0
2016-Feb-04 17:32N 59°16' E 005°29'0 0.0
2016-Feb-04 16:29N 59°16' E 005°29'0 0.0
2016-Feb-04 15:26N 59°16' E 005°29'0 0.0
2016-Feb-04 14:32N 59°16' E 005°29'0 0.0
2016-Feb-04 13:32N 59°16' E 005°29'0 0.0
2016-Feb-04 12:32N 59°16' E 005°29'0 0.0
2016-Feb-04 11:32N 59°16' E 005°29'0 0.0
2016-Feb-04 10:32N 59°16' E 005°29'0 0.0
2016-Feb-04 09:26N 59°16' E 005°29'0 0.0
2016-Feb-04 08:32N 59°16' E 005°29'0 0.0
2016-Feb-04 07:32N 59°16' E 005°29'0 0.0
2016-Feb-04 06:20N 59°16' E 005°29'0 0.0
2016-Feb-04 05:32N 59°16' E 005°29'0 0.0
2016-Feb-04 04:32N 59°16' E 005°29'0 0.0
2016-Feb-04 03:32N 59°16' E 005°29'0 0.0
2016-Feb-04 02:32N 59°16' E 005°29'0 0.0
2016-Feb-04 01:32N 59°16' E 005°29'0 0.0
2016-Feb-04 00:32N 59°16' E 005°29'0 0.0
2016-Feb-03 23:26N 59°16' E 005°29'0 0.0
2016-Feb-03 22:32N 59°16' E 005°29'0 0.0
2016-Feb-03 21:32N 59°16' E 005°29'0 0.0
2016-Feb-03 20:32N 59°16' E 005°29'0 0.0
2016-Feb-03 19:32N 59°16' E 005°29'0 0.0
2016-Feb-03 18:29N 59°16' E 005°29'0 0.0
2016-Feb-03 17:32N 59°16' E 005°29'0 0.0
2016-Feb-03 16:32N 59°16' E 005°29'0 0.0
2016-Feb-03 15:32N 59°16' E 005°29'0 0.0
2016-Feb-03 14:32N 59°16' E 005°29'0 0.0
2016-Feb-03 13:32N 59°16' E 005°29'0 0.0
2016-Feb-03 12:29N 59°16' E 005°29'0 0.0
2016-Feb-03 11:32N 59°16' E 005°29'0 0.0
2016-Feb-03 10:32N 59°16' E 005°29'0 0.0
2016-Feb-03 09:32N 59°16' E 005°29'0 0.0
2016-Feb-03 08:32N 59°16' E 005°29'0 0.0
2016-Feb-03 07:32N 59°16' E 005°29'0 0.0
2016-Feb-03 06:32N 59°16' E 005°29'0 0.0
2016-Feb-03 05:32N 59°16' E 005°29'0 0.0
2016-Feb-03 04:32N 59°16' E 005°29'0 0.0
2016-Feb-03 03:32N 59°16' E 005°29'0 0.0
2016-Feb-03 02:32N 59°16' E 005°29'0 0.0
2016-Feb-03 01:29N 59°16' E 005°29'0 0.0
2016-Feb-03 00:32N 59°16' E 005°29'0 0.0
2016-Feb-02 23:29N 59°16' E 005°29'0 0.0
2016-Feb-02 22:32N 59°16' E 005°29'0 0.0
2016-Feb-02 21:26N 59°16' E 005°29'0 0.0
2016-Feb-02 20:32N 59°16' E 005°29'0 0.0
2016-Feb-02 19:32N 59°16' E 005°29'0 0.0
2016-Feb-02 18:29N 59°16' E 005°29'0 0.0
2016-Feb-02 17:32N 59°16' E 005°29'0 0.0
2016-Feb-02 16:32N 59°16' E 005°29'0 0.0
2016-Feb-02 15:32N 59°16' E 005°29'0 0.0
2016-Feb-02 14:32N 59°16' E 005°29'0 0.0
2016-Feb-02 13:32N 59°16' E 005°29'0 0.0
2016-Feb-02 12:32N 59°16' E 005°29'0 0.0
2016-Feb-02 11:29N 59°16' E 005°29'0 0.0
2016-Feb-02 10:32N 59°16' E 005°29'0 0.0
2016-Feb-02 09:32N 59°16' E 005°29'0 0.0
2016-Feb-02 08:31N 59°16' E 005°29'0 0.0
2016-Feb-02 07:20N 59°16' E 005°29'0 0.0
2016-Feb-02 06:26N 59°16' E 005°29'0 0.0
2016-Feb-02 05:26N 59°16' E 005°29'0 0.0
2016-Feb-02 04:32N 59°16' E 005°29'0 0.0
2016-Feb-02 03:32N 59°16' E 005°29'0 0.0
2016-Feb-02 02:29N 59°16' E 005°29'0 0.0
2016-Feb-02 01:32N 59°16' E 005°29'0 0.0
2016-Feb-02 00:32N 59°16' E 005°29'0 0.0
2016-Feb-01 23:32N 59°16' E 005°29'0 0.0
2016-Feb-01 22:31N 59°16' E 005°29'0 0.0
2016-Feb-01 21:26N 59°16' E 005°29'0 0.0
2016-Feb-01 20:26N 59°16' E 005°29'0 0.0
2016-Feb-01 19:31N 59°16' E 005°29'0 0.0
2016-Feb-01 18:26N 59°16' E 005°29'0 0.0
2016-Feb-01 17:25N 59°16' E 005°29'0 0.0
2016-Feb-01 16:23N 59°16' E 005°29'0 0.0
2016-Feb-01 15:32N 59°16' E 005°29'0 0.0
2016-Feb-01 14:31N 59°16' E 005°29'0 0.0
2016-Feb-01 13:31N 59°16' E 005°29'0 0.0
2016-Feb-01 12:32N 59°16' E 005°29'0 0.0
2016-Feb-01 11:31N 59°16' E 005°29'0 0.0
2016-Feb-01 10:31N 59°16' E 005°29'0 0.0
2016-Feb-01 09:31N 59°16' E 005°29'0 0.0
2016-Feb-01 08:32N 59°16' E 005°29'0 0.0
2016-Feb-01 07:28N 59°16' E 005°29'0 0.0
2016-Feb-01 05:31N 59°16' E 005°29'0 0.0
2016-Feb-01 04:32N 59°16' E 005°29'0 0.0
2016-Feb-01 03:31N 59°16' E 005°29'0 0.0
2016-Feb-01 02:29N 59°16' E 005°29'0 0.0
2016-Feb-01 01:31N 59°16' E 005°29'0 0.0
2016-Feb-01 00:31N 59°16' E 005°29'0 0.0
2016-Jan-31 23:31N 59°16' E 005°29'  
Track history (hours):
 
Tides and Currents Weather Stations Pressure Air Temp Water Temp Dewpoint Dewpoint Depression Visibility Wind Speed Wind Dir Waves Ship Positions

Peary Spirit

Last reported at 2016-Feb-10 23:31 UTC. Time now 2016-Feb-11 00:29 UTC.
Position N 52°12' E 004°14'.

Length 249 m; draft 9.5 m.

Type: Tanker. MMSI: 311027600.

Date/timePositionNaut miles runAvg speedWind from/ knotsBaromVisibWave heightAir tempDewpointWater temp
2016-Feb-10 23:31N 52°12' E 004°14'0 0.0
2016-Feb-10 22:31N 52°12' E 004°14'0 0.0
2016-Feb-10 21:31N 52°12' E 004°14'0 0.1
2016-Feb-10 20:31N 52°12' E 004°14'0 0.0
2016-Feb-10 19:31N 52°12' E 004°14'0 0.0
2016-Feb-10 18:31N 52°12' E 004°14'0 0.1
2016-Feb-10 17:31N 52°12' E 004°14'0 0.0
2016-Feb-10 16:31N 52°12' E 004°14'0 0.0
2016-Feb-10 15:31N 52°12' E 004°14'0 0.0
2016-Feb-10 14:31N 52°12' E 004°14'0 0.0
2016-Feb-10 13:31N 52°12' E 004°14'0 0.0
2016-Feb-10 12:31N 52°12' E 004°14'0 0.0
2016-Feb-10 11:31N 52°12' E 004°14'0 0.0
2016-Feb-10 10:31N 52°12' E 004°14'0 0.0
2016-Feb-10 09:31N 52°12' E 004°14'0 0.1
2016-Feb-10 08:31N 52°12' E 004°14'0 0.0
2016-Feb-10 07:31N 52°12' E 004°14'0 0.0
2016-Feb-10 06:31N 52°12' E 004°14'0 0.0
2016-Feb-10 05:31N 52°12' E 004°14'0 0.0
2016-Feb-10 04:31N 52°12' E 004°14'0 0.0
2016-Feb-10 03:31N 52°12' E 004°14'0 0.0
2016-Feb-10 02:31N 52°12' E 004°14'0 0.0
2016-Feb-10 01:31N 52°12' E 004°14'0 0.0
2016-Feb-10 00:31N 52°12' E 004°14'0 0.0
2016-Feb-09 23:31N 52°12' E 004°14'0 0.1
2016-Feb-09 22:31N 52°12' E 004°14'0 0.0
2016-Feb-09 21:31N 52°12' E 004°14'0 0.0
2016-Feb-09 20:31N 52°12' E 004°14'0 0.0
2016-Feb-09 19:31N 52°12' E 004°14'0 0.0
2016-Feb-09 18:31N 52°12' E 004°14'0 0.0
2016-Feb-09 17:31N 52°12' E 004°14'0 0.0
2016-Feb-09 16:31N 52°12' E 004°14'1 1.4
2016-Feb-09 15:33N 52°14' E 004°15'4 4.4
2016-Feb-09 14:33N 52°15' E 004°08'2 1.5
2016-Feb-09 13:33N 52°14' E 004°06'0 0.3
2016-Feb-09 12:33N 52°14' E 004°06'0 0.2
2016-Feb-09 11:33N 52°14' E 004°07'0 0.1
2016-Feb-09 10:33N 52°14' E 004°07'4 4.0
2016-Feb-09 09:33N 52°17' E 004°03'18 9.0
2016-Feb-09 07:33N 52°14' E 003°34'1313.1
2016-Feb-09 06:33N 52°03' E 003°24'1413.4
2016-Feb-09 05:32N 51°50' E 003°19'8 7.8
2016-Feb-09 04:33N 51°45' E 003°09'1 0.8
2016-Feb-09 03:32N 51°46' E 003°10'0 0.0
2016-Feb-09 02:33N 51°46' E 003°10'0 0.0
2016-Feb-09 01:33N 51°46' E 003°10'0 0.0
2016-Feb-09 00:32N 51°46' E 003°10'0 0.0
2016-Feb-08 23:32N 51°46' E 003°10'0 0.0
2016-Feb-08 22:29N 51°46' E 003°10'0 0.0
2016-Feb-08 21:33N 51°46' E 003°10'0 0.0
2016-Feb-08 20:33N 51°46' E 003°10'2 1.7
2016-Feb-08 19:33N 51°46' E 003°13'1111.2
2016-Feb-08 18:31N 51°35' E 003°10'1212.4
2016-Feb-08 17:33N 51°25' E 002°59'1110.8
2016-Feb-08 16:33N 51°25' E 003°17'1212.0
2016-Feb-08 15:34N 51°26' E 003°36'9 9.1
2016-Feb-08 14:33N 51°21' E 003°48'9 9.1
2016-Feb-08 13:33N 51°23' E 004°02'9 8.7
2016-Feb-08 12:34N 51°21' E 004°16'1 0.7
2016-Feb-08 11:33N 51°21' E 004°17'0 0.1
2016-Feb-08 10:33N 51°21' E 004°17'0 0.5
2016-Feb-08 09:33N 51°20' E 004°18'0 0.0
2016-Feb-08 03:12N 51°20' E 004°18'0 0.0
2016-Feb-08 02:24N 51°20' E 004°18'0 0.0
2016-Feb-08 00:24N 51°20' E 004°18'0 0.0
2016-Feb-07 23:30N 51°20' E 004°18'0 0.0
2016-Feb-07 22:30N 51°20' E 004°18'0 0.0
2016-Feb-07 01:22N 51°20' E 004°18'0 0.0
2016-Feb-07 00:33N 51°20' E 004°18'1 0.5
2016-Feb-06 23:33N 51°21' E 004°17'0 0.0
2016-Feb-06 22:33N 51°21' E 004°17'3 3.3
2016-Feb-06 21:33N 51°23' E 004°13'9 9.3
2016-Feb-06 20:33N 51°26' E 003°59'1110.6
2016-Feb-06 19:33N 51°24' E 003°43'9 9.3
2016-Feb-06 18:33N 51°25' E 003°28'1212.1
2016-Feb-06 17:33N 51°24' E 003°08'1312.7
2016-Feb-06 16:33N 51°25' E 002°48'9 8.5
2016-Feb-06 15:31N 51°22' E 002°35'1313.3
2016-Feb-06 14:33N 51°18' E 002°15'1212.5
2016-Feb-06 13:34N 51°25' E 001°58'1111.1
2016-Feb-06 12:33N 51°34' E 002°09'1212.2
2016-Feb-06 11:33N 51°43' E 002°23'6612.2
2016-Feb-06 06:11N 52°43' E 003°05'913.3
2016-Feb-06 05:32N 52°51' E 003°12'33611.9
2016-Feb-05 01:11N 58°23' E 004°43'812.5
2016-Feb-05 00:34N 58°30' E 004°48'1312.9
2016-Feb-04 23:34N 58°43' E 004°55'1313.2
2016-Feb-04 22:34N 58°55' E 005°05'1313.3
2016-Feb-04 21:33N 59°06' E 005°19'1111.3
2016-Feb-04 20:33N 59°16' E 005°30'1 0.3
2016-Feb-04 18:26N 59°16' E 005°29'0 0.0
2016-Feb-04 17:32N 59°16' E 005°29'0 0.0
2016-Feb-04 16:29N 59°16' E 005°29'0 0.0
2016-Feb-04 15:26N 59°16' E 005°29'0 0.0
2016-Feb-04 14:32N 59°16' E 005°29'0 0.0
2016-Feb-04 13:32N 59°16' E 005°29'0 0.0
2016-Feb-04 12:32N 59°16' E 005°29'0 0.0
2016-Feb-04 11:32N 59°16' E 005°29'0 0.0
2016-Feb-04 10:32N 59°16' E 005°29'0 0.0
2016-Feb-04 09:26N 59°16' E 005°29'0 0.0
2016-Feb-04 08:32N 59°16' E 005°29'0 0.0
2016-Feb-04 07:32N 59°16' E 005°29'0 0.0
2016-Feb-04 06:20N 59°16' E 005°29'0 0.0
2016-Feb-04 05:32N 59°16' E 005°29'0 0.0
2016-Feb-04 04:32N 59°16' E 005°29'0 0.0
2016-Feb-04 03:32N 59°16' E 005°29'0 0.0
2016-Feb-04 02:32N 59°16' E 005°29'0 0.0
2016-Feb-04 01:32N 59°16' E 005°29'0 0.0
2016-Feb-04 00:32N 59°16' E 005°29'0 0.0
2016-Feb-03 23:26N 59°16' E 005°29'0 0.0
2016-Feb-03 22:32N 59°16' E 005°29'0 0.0
2016-Feb-03 21:32N 59°16' E 005°29'0 0.0
2016-Feb-03 20:32N 59°16' E 005°29'0 0.0
2016-Feb-03 19:32N 59°16' E 005°29'0 0.0
2016-Feb-03 18:29N 59°16' E 005°29'0 0.0
2016-Feb-03 17:32N 59°16' E 005°29'0 0.0
2016-Feb-03 16:32N 59°16' E 005°29'0 0.0
2016-Feb-03 15:32N 59°16' E 005°29'0 0.0
2016-Feb-03 14:32N 59°16' E 005°29'0 0.0
2016-Feb-03 13:32N 59°16' E 005°29'0 0.0
2016-Feb-03 12:29N 59°16' E 005°29'0 0.0
2016-Feb-03 11:32N 59°16' E 005°29'0 0.0
2016-Feb-03 10:32N 59°16' E 005°29'0 0.0
2016-Feb-03 09:32N 59°16' E 005°29'0 0.0
2016-Feb-03 08:32N 59°16' E 005°29'0 0.0
2016-Feb-03 07:32N 59°16' E 005°29'0 0.0
2016-Feb-03 06:32N 59°16' E 005°29'0 0.0
2016-Feb-03 05:32N 59°16' E 005°29'0 0.0
2016-Feb-03 04:32N 59°16' E 005°29'0 0.0
2016-Feb-03 03:32N 59°16' E 005°29'0 0.0
2016-Feb-03 02:32N 59°16' E 005°29'0 0.0
2016-Feb-03 01:29N 59°16' E 005°29'0 0.0
2016-Feb-03 00:32N 59°16' E 005°29'0 0.0
2016-Feb-02 23:29N 59°16' E 005°29'0 0.0
2016-Feb-02 22:32N 59°16' E 005°29'0 0.0
2016-Feb-02 21:26N 59°16' E 005°29'0 0.0
2016-Feb-02 20:32N 59°16' E 005°29'0 0.0
2016-Feb-02 19:32N 59°16' E 005°29'0 0.0
2016-Feb-02 18:29N 59°16' E 005°29'0 0.0
2016-Feb-02 17:32N 59°16' E 005°29'0 0.0
2016-Feb-02 16:32N 59°16' E 005°29'0 0.0
2016-Feb-02 15:32N 59°16' E 005°29'0 0.0
2016-Feb-02 14:32N 59°16' E 005°29'0 0.0
2016-Feb-02 13:32N 59°16' E 005°29'0 0.0
2016-Feb-02 12:32N 59°16' E 005°29'0 0.0
2016-Feb-02 11:29N 59°16' E 005°29'0 0.0
2016-Feb-02 10:32N 59°16' E 005°29'0 0.0
2016-Feb-02 09:32N 59°16' E 005°29'0 0.0
2016-Feb-02 08:31N 59°16' E 005°29'0 0.0
2016-Feb-02 07:20N 59°16' E 005°29'0 0.0
2016-Feb-02 06:26N 59°16' E 005°29'0 0.0
2016-Feb-02 05:26N 59°16' E 005°29'0 0.0
2016-Feb-02 04:32N 59°16' E 005°29'0 0.0
2016-Feb-02 03:32N 59°16' E 005°29'0 0.0
2016-Feb-02 02:29N 59°16' E 005°29'0 0.0
2016-Feb-02 01:32N 59°16' E 005°29'0 0.0
2016-Feb-02 00:32N 59°16' E 005°29'0 0.0
2016-Feb-01 23:32N 59°16' E 005°29'0 0.0
2016-Feb-01 22:31N 59°16' E 005°29'0 0.0
2016-Feb-01 21:26N 59°16' E 005°29'0 0.0
2016-Feb-01 20:26N 59°16' E 005°29'0 0.0
2016-Feb-01 19:31N 59°16' E 005°29'0 0.0
2016-Feb-01 18:26N 59°16' E 005°29'0 0.0
2016-Feb-01 17:25N 59°16' E 005°29'0 0.0
2016-Feb-01 16:23N 59°16' E 005°29'0 0.0
2016-Feb-01 15:32N 59°16' E 005°29'0 0.0
2016-Feb-01 14:31N 59°16' E 005°29'0 0.0
2016-Feb-01 13:31N 59°16' E 005°29'0 0.0
2016-Feb-01 12:32N 59°16' E 005°29'0 0.0
2016-Feb-01 11:31N 59°16' E 005°29'0 0.0
2016-Feb-01 10:31N 59°16' E 005°29'0 0.0
2016-Feb-01 09:31N 59°16' E 005°29'0 0.0
2016-Feb-01 08:32N 59°16' E 005°29'0 0.0
2016-Feb-01 07:28N 59°16' E 005°29'0 0.0
2016-Feb-01 05:31N 59°16' E 005°29'0 0.0
2016-Feb-01 04:32N 59°16' E 005°29'0 0.0
2016-Feb-01 03:31N 59°16' E 005°29'0 0.0
2016-Feb-01 02:29N 59°16' E 005°29'0 0.0
2016-Feb-01 01:31N 59°16' E 005°29'0 0.0
2016-Feb-01 00:31N 59°16' E 005°29'0 0.0
2016-Jan-31 23:31N 59°16' E 005°29'  

Dump ship's entire track history